sensor_id;sensor_type;location;lat;lon;timestamp;temperature;humidity
63013;DHT22;62113;45.624;11.700;2022-09-09T00:00:24;24.20;69.80
63013;DHT22;62113;45.624;11.700;2022-09-09T00:02:58;24.20;69.80
63013;DHT22;62113;45.624;11.700;2022-09-09T00:05:58;24.20;69.90
63013;DHT22;62113;45.624;11.700;2022-09-09T00:11:26;24.10;70.20
63013;DHT22;62113;45.624;11.700;2022-09-09T00:13:57;24.10;70.10
63013;DHT22;62113;45.624;11.700;2022-09-09T00:16:26;24.10;70.20
63013;DHT22;62113;45.624;11.700;2022-09-09T00:19:08;24.00;70.60
63013;DHT22;62113;45.624;11.700;2022-09-09T00:21:38;24.00;70.40
63013;DHT22;62113;45.624;11.700;2022-09-09T00:24:41;24.00;70.70
63013;DHT22;62113;45.624;11.700;2022-09-09T00:27:19;24.00;71.10
63013;DHT22;62113;45.624;11.700;2022-09-09T00:30:24;24.00;70.90
63013;DHT22;62113;45.624;11.700;2022-09-09T00:32:45;24.10;70.70
63013;DHT22;62113;45.624;11.700;2022-09-09T00:35:27;24.00;70.30
63013;DHT22;62113;45.624;11.700;2022-09-09T00:37:58;24.00;70.30
63013;DHT22;62113;45.624;11.700;2022-09-09T00:40:34;24.00;70.40
63013;DHT22;62113;45.624;11.700;2022-09-09T00:46:05;23.90;70.70
63013;DHT22;62113;45.624;11.700;2022-09-09T00:54:50;23.80;70.90
63013;DHT22;62113;45.624;11.700;2022-09-09T00:57:34;23.90;70.90
63013;DHT22;62113;45.624;11.700;2022-09-09T01:11:21;23.80;70.80
63013;DHT22;62113;45.624;11.700;2022-09-09T01:13:52;23.80;70.80
63013;DHT22;62113;45.624;11.700;2022-09-09T01:16:18;23.80;70.80
63013;DHT22;62113;45.624;11.700;2022-09-09T01:18:47;23.80;70.70
63013;DHT22;62113;45.624;11.700;2022-09-09T01:21:28;23.80;70.70
63013;DHT22;62113;45.624;11.700;2022-09-09T01:26:44;23.80;70.50
63013;DHT22;62113;45.624;11.700;2022-09-09T01:29:13;23.80;70.50
63013;DHT22;62113;45.624;11.700;2022-09-09T01:31:56;23.80;70.50
63013;DHT22;62113;45.624;11.700;2022-09-09T01:34:24;23.80;70.40
63013;DHT22;62113;45.624;11.700;2022-09-09T01:37:00;23.80;70.40
63013;DHT22;62113;45.624;11.700;2022-09-09T01:39:27;23.80;70.30
63013;DHT22;62113;45.624;11.700;2022-09-09T01:41:55;23.80;70.20
63013;DHT22;62113;45.624;11.700;2022-09-09T01:44:21;23.90;70.20
63013;DHT22;62113;45.624;11.700;2022-09-09T01:46:47;23.80;70.20
63013;DHT22;62113;45.624;11.700;2022-09-09T01:49:13;23.90;70.10
63013;DHT22;62113;45.624;11.700;2022-09-09T01:51:41;23.90;70.10
63013;DHT22;62113;45.624;11.700;2022-09-09T01:54:08;23.90;70.00
63013;DHT22;62113;45.624;11.700;2022-09-09T02:02:26;24.00;69.60
63013;DHT22;62113;45.624;11.700;2022-09-09T02:07:41;24.00;69.60
63013;DHT22;62113;45.624;11.700;2022-09-09T02:15:42;24.00;69.20
63013;DHT22;62113;45.624;11.700;2022-09-09T02:18:11;24.10;69.20
63013;DHT22;62113;45.624;11.700;2022-09-09T02:20:39;24.10;69.20
63013;DHT22;62113;45.624;11.700;2022-09-09T02:23:06;24.10;69.10
63013;DHT22;62113;45.624;11.700;2022-09-09T02:25:36;24.00;69.00
63013;DHT22;62113;45.624;11.700;2022-09-09T02:28:04;24.10;69.00
63013;DHT22;62113;45.624;11.700;2022-09-09T02:30:33;24.10;68.80
63013;DHT22;62113;45.624;11.700;2022-09-09T02:33:04;24.10;68.80
63013;DHT22;62113;45.624;11.700;2022-09-09T02:35:32;24.10;68.50
63013;DHT22;62113;45.624;11.700;2022-09-09T02:38:02;24.10;68.30
63013;DHT22;62113;45.624;11.700;2022-09-09T02:40:29;24.10;68.30
63013;DHT22;62113;45.624;11.700;2022-09-09T02:42:55;24.10;68.20
63013;DHT22;62113;45.624;11.700;2022-09-09T02:45:25;24.10;68.30
63013;DHT22;62113;45.624;11.700;2022-09-09T02:47:59;24.00;68.30
63013;DHT22;62113;45.624;11.700;2022-09-09T02:50:31;24.10;68.20
63013;DHT22;62113;45.624;11.700;2022-09-09T02:55:47;24.00;68.20
63013;DHT22;62113;45.624;11.700;2022-09-09T02:58:17;24.00;68.20
63013;DHT22;62113;45.624;11.700;2022-09-09T03:00:47;23.90;68.20
63013;DHT22;62113;45.624;11.700;2022-09-09T03:03:14;24.00;68.30
63013;DHT22;62113;45.624;11.700;2022-09-09T03:05:41;24.00;68.30
63013;DHT22;62113;45.624;11.700;2022-09-09T03:08:07;24.00;68.30
63013;DHT22;62113;45.624;11.700;2022-09-09T03:10:33;23.90;68.30
63013;DHT22;62113;45.624;11.700;2022-09-09T03:12:59;23.90;68.30
63013;DHT22;62113;45.624;11.700;2022-09-09T03:15:25;23.90;68.40
63013;DHT22;62113;45.624;11.700;2022-09-09T03:17:54;23.90;68.40
63013;DHT22;62113;45.624;11.700;2022-09-09T03:20:20;23.90;68.40
63013;DHT22;62113;45.624;11.700;2022-09-09T03:22:46;23.80;68.40
63013;DHT22;62113;45.624;11.700;2022-09-09T03:25:12;23.80;68.40
63013;DHT22;62113;45.624;11.700;2022-09-09T03:27:37;23.90;68.50
63013;DHT22;62113;45.624;11.700;2022-09-09T03:30:03;23.80;68.50
63013;DHT22;62113;45.624;11.700;2022-09-09T03:32:29;23.80;68.50
63013;DHT22;62113;45.624;11.700;2022-09-09T03:34:56;23.80;68.50
63013;DHT22;62113;45.624;11.700;2022-09-09T03:37:22;23.80;68.60
63013;DHT22;62113;45.624;11.700;2022-09-09T03:39:48;23.80;68.70
63013;DHT22;62113;45.624;11.700;2022-09-09T03:42:14;23.80;68.70
63013;DHT22;62113;45.624;11.700;2022-09-09T03:44:44;23.70;68.70
63013;DHT22;62113;45.624;11.700;2022-09-09T03:47:12;23.70;68.70
63013;DHT22;62113;45.624;11.700;2022-09-09T03:49:38;23.70;68.70
63013;DHT22;62113;45.624;11.700;2022-09-09T03:52:04;23.70;68.70
63013;DHT22;62113;45.624;11.700;2022-09-09T03:54:29;23.70;68.80
63013;DHT22;62113;45.624;11.700;2022-09-09T03:56:55;23.70;68.80
63013;DHT22;62113;45.624;11.700;2022-09-09T03:59:21;23.70;68.80
63013;DHT22;62113;45.624;11.700;2022-09-09T04:01:46;23.70;68.70
63013;DHT22;62113;45.624;11.700;2022-09-09T04:04:12;23.70;68.80
63013;DHT22;62113;45.624;11.700;2022-09-09T04:06:38;23.70;68.80
63013;DHT22;62113;45.624;11.700;2022-09-09T04:09:04;23.70;68.70
63013;DHT22;62113;45.624;11.700;2022-09-09T04:11:30;23.60;68.70
63013;DHT22;62113;45.624;11.700;2022-09-09T04:13:55;23.60;68.80
63013;DHT22;62113;45.624;11.700;2022-09-09T04:16:21;23.50;68.80
63013;DHT22;62113;45.624;11.700;2022-09-09T04:18:46;23.50;68.70
63013;DHT22;62113;45.624;11.700;2022-09-09T04:21:12;23.50;68.70
63013;DHT22;62113;45.624;11.700;2022-09-09T04:23:38;23.50;68.70
63013;DHT22;62113;45.624;11.700;2022-09-09T04:26:04;23.50;68.60
63013;DHT22;62113;45.624;11.700;2022-09-09T04:28:32;23.50;68.50
63013;DHT22;62113;45.624;11.700;2022-09-09T04:31:05;23.50;68.40
63013;DHT22;62113;45.624;11.700;2022-09-09T04:33:31;23.50;68.30
63013;DHT22;62113;45.624;11.700;2022-09-09T04:35:57;23.60;68.20
63013;DHT22;62113;45.624;11.700;2022-09-09T04:38:22;23.50;68.20
63013;DHT22;62113;45.624;11.700;2022-09-09T04:40:50;23.50;68.20
63013;DHT22;62113;45.624;11.700;2022-09-09T04:43:17;23.40;68.20
63013;DHT22;62113;45.624;11.700;2022-09-09T04:45:43;23.40;68.10
63013;DHT22;62113;45.624;11.700;2022-09-09T04:48:09;23.40;68.00
63013;DHT22;62113;45.624;11.700;2022-09-09T04:50:37;23.30;68.10
63013;DHT22;62113;45.624;11.700;2022-09-09T04:53:04;23.30;68.20
63013;DHT22;62113;45.624;11.700;2022-09-09T04:55:33;23.30;68.20
63013;DHT22;62113;45.624;11.700;2022-09-09T04:58:04;23.30;68.30
63013;DHT22;62113;45.624;11.700;2022-09-09T05:00:30;23.20;68.40
63013;DHT22;62113;45.624;11.700;2022-09-09T05:02:56;23.20;68.50
63013;DHT22;62113;45.624;11.700;2022-09-09T05:05:21;23.30;68.60
63013;DHT22;62113;45.624;11.700;2022-09-09T05:07:47;23.30;68.60
63013;DHT22;62113;45.624;11.700;2022-09-09T05:10:13;23.30;68.60
63013;DHT22;62113;45.624;11.700;2022-09-09T05:12:40;23.30;68.50
63013;DHT22;62113;45.624;11.700;2022-09-09T05:15:06;23.30;68.50
63013;DHT22;62113;45.624;11.700;2022-09-09T05:17:32;23.30;68.60
63013;DHT22;62113;45.624;11.700;2022-09-09T05:19:59;23.30;68.60
63013;DHT22;62113;45.624;11.700;2022-09-09T05:22:24;23.30;68.60
63013;DHT22;62113;45.624;11.700;2022-09-09T05:24:50;23.40;68.60
63013;DHT22;62113;45.624;11.700;2022-09-09T05:27:17;23.40;68.60
63013;DHT22;62113;45.624;11.700;2022-09-09T05:29:45;23.50;68.70
63013;DHT22;62113;45.624;11.700;2022-09-09T05:32:10;23.50;68.70
63013;DHT22;62113;45.624;11.700;2022-09-09T05:34:36;23.50;68.50
63013;DHT22;62113;45.624;11.700;2022-09-09T05:37:03;23.50;68.50
63013;DHT22;62113;45.624;11.700;2022-09-09T05:39:30;23.60;68.50
63013;DHT22;62113;45.624;11.700;2022-09-09T05:41:55;23.60;68.50
63013;DHT22;62113;45.624;11.700;2022-09-09T05:44:21;23.70;68.50
63013;DHT22;62113;45.624;11.700;2022-09-09T05:46:49;23.70;68.40
63013;DHT22;62113;45.624;11.700;2022-09-09T05:49:15;23.70;68.40
63013;DHT22;62113;45.624;11.700;2022-09-09T05:51:41;23.70;68.40
63013;DHT22;62113;45.624;11.700;2022-09-09T05:54:09;23.80;68.20
63013;DHT22;62113;45.624;11.700;2022-09-09T05:56:34;23.80;68.10
63013;DHT22;62113;45.624;11.700;2022-09-09T05:59:00;23.80;68.10
63013;DHT22;62113;45.624;11.700;2022-09-09T06:01:29;23.90;68.10
63013;DHT22;62113;45.624;11.700;2022-09-09T06:03:55;23.90;68.20
63013;DHT22;62113;45.624;11.700;2022-09-09T06:06:26;24.00;68.30
63013;DHT22;62113;45.624;11.700;2022-09-09T06:08:53;24.00;68.30
63013;DHT22;62113;45.624;11.700;2022-09-09T06:11:21;24.10;68.20
63013;DHT22;62113;45.624;11.700;2022-09-09T06:13:47;24.20;68.00
63013;DHT22;62113;45.624;11.700;2022-09-09T06:16:18;24.20;68.00
63013;DHT22;62113;45.624;11.700;2022-09-09T06:18:44;24.30;67.80
63013;DHT22;62113;45.624;11.700;2022-09-09T06:21:18;24.40;67.40
63013;DHT22;62113;45.624;11.700;2022-09-09T06:23:44;24.50;67.10
63013;DHT22;62113;45.624;11.700;2022-09-09T06:26:21;24.60;66.60
63013;DHT22;62113;45.624;11.700;2022-09-09T06:28:48;24.70;66.40
63013;DHT22;62113;45.624;11.700;2022-09-09T06:31:16;24.80;66.20
63013;DHT22;62113;45.624;11.700;2022-09-09T06:33:52;25.00;66.20
63013;DHT22;62113;45.624;11.700;2022-09-09T06:36:23;25.20;65.90
63013;DHT22;62113;45.624;11.700;2022-09-09T06:38:49;25.40;65.40
63013;DHT22;62113;45.624;11.700;2022-09-09T06:41:17;25.80;64.70
63013;DHT22;62113;45.624;11.700;2022-09-09T06:43:44;26.40;64.10
63013;DHT22;62113;45.624;11.700;2022-09-09T06:46:21;27.00;62.10
63013;DHT22;62113;45.624;11.700;2022-09-09T06:48:48;27.40;60.80
63013;DHT22;62113;45.624;11.700;2022-09-09T06:51:15;27.60;58.90
63013;DHT22;62113;45.624;11.700;2022-09-09T06:53:42;27.60;59.20
63013;DHT22;62113;45.624;11.700;2022-09-09T06:58:40;28.40;57.10
63013;DHT22;62113;45.624;11.700;2022-09-09T07:01:11;28.90;56.60
63013;DHT22;62113;45.624;11.700;2022-09-09T07:03:38;29.00;55.10
63013;DHT22;62113;45.624;11.700;2022-09-09T07:06:05;28.90;54.90
63013;DHT22;62113;45.624;11.700;2022-09-09T07:08:31;28.70;55.20
63013;DHT22;62113;45.624;11.700;2022-09-09T07:11:08;28.40;55.70
63013;DHT22;62113;45.624;11.700;2022-09-09T07:13:34;28.20;56.40
63013;DHT22;62113;45.624;11.700;2022-09-09T07:16:07;28.00;56.60
63013;DHT22;62113;45.624;11.700;2022-09-09T07:18:33;27.70;57.10
63013;DHT22;62113;45.624;11.700;2022-09-09T07:21:00;27.70;57.50
63013;DHT22;62113;45.624;11.700;2022-09-09T07:23:27;27.50;57.80
63013;DHT22;62113;45.624;11.700;2022-09-09T07:25:53;27.40;58.10
63013;DHT22;62113;45.624;11.700;2022-09-09T07:28:22;27.30;58.40
63013;DHT22;62113;45.624;11.700;2022-09-09T07:30:55;27.20;58.70
63013;DHT22;62113;45.624;11.700;2022-09-09T07:33:22;27.20;59.10
63013;DHT22;62113;45.624;11.700;2022-09-09T07:35:47;27.10;59.30
63013;DHT22;62113;45.624;11.700;2022-09-09T07:38:13;27.00;59.60
63013;DHT22;62113;45.624;11.700;2022-09-09T07:40:40;27.20;59.60
63013;DHT22;62113;45.624;11.700;2022-09-09T07:43:05;27.50;59.50
63013;DHT22;62113;45.624;11.700;2022-09-09T07:45:32;27.90;57.70
63013;DHT22;62113;45.624;11.700;2022-09-09T07:47:58;28.30;56.70
63013;DHT22;62113;45.624;11.700;2022-09-09T07:50:24;28.60;55.70
63013;DHT22;62113;45.624;11.700;2022-09-09T07:52:51;28.70;55.30
63013;DHT22;62113;45.624;11.700;2022-09-09T07:55:17;28.70;54.90
63013;DHT22;62113;45.624;11.700;2022-09-09T07:57:42;28.60;55.00
63013;DHT22;62113;45.624;11.700;2022-09-09T08:00:09;28.50;55.20
63013;DHT22;62113;45.624;11.700;2022-09-09T08:02:37;28.60;55.90
63013;DHT22;62113;45.624;11.700;2022-09-09T08:05:02;28.60;56.20
63013;DHT22;62113;45.624;11.700;2022-09-09T08:07:28;28.60;56.00
63013;DHT22;62113;45.624;11.700;2022-09-09T08:09:54;28.50;55.80
63013;DHT22;62113;45.624;11.700;2022-09-09T08:12:21;28.40;55.80
63013;DHT22;62113;45.624;11.700;2022-09-09T08:14:47;28.20;55.90
63013;DHT22;62113;45.624;11.700;2022-09-09T08:17:14;28.10;56.30
63013;DHT22;62113;45.624;11.700;2022-09-09T08:19:39;27.90;56.40
63013;DHT22;62113;45.624;11.700;2022-09-09T08:22:05;27.80;56.70
63013;DHT22;62113;45.624;11.700;2022-09-09T08:24:31;27.70;57.20
63013;DHT22;62113;45.624;11.700;2022-09-09T08:26:57;27.60;57.50
63013;DHT22;62113;45.624;11.700;2022-09-09T08:29:23;27.50;57.80
63013;DHT22;62113;45.624;11.700;2022-09-09T08:31:49;27.50;58.30
63013;DHT22;62113;45.624;11.700;2022-09-09T08:34:17;27.50;58.30
63013;DHT22;62113;45.624;11.700;2022-09-09T08:36:46;27.50;58.30
63013;DHT22;62113;45.624;11.700;2022-09-09T08:39:14;27.50;58.30
63013;DHT22;62113;45.624;11.700;2022-09-09T08:44:49;28.10;58.50
63013;DHT22;62113;45.624;11.700;2022-09-09T08:50:05;29.30;54.90
63013;DHT22;62113;45.624;11.700;2022-09-09T08:58:17;30.50;51.10
63013;DHT22;62113;45.624;11.700;2022-09-09T09:10:00;29.70;51.70
63013;DHT22;62113;45.624;11.700;2022-09-09T09:12:31;29.70;51.60
63013;DHT22;62113;45.624;11.700;2022-09-09T09:14:59;29.70;51.40
63013;DHT22;62113;45.624;11.700;2022-09-09T09:17:27;29.50;51.00
63013;DHT22;62113;45.624;11.700;2022-09-09T09:19:57;29.60;51.60
63013;DHT22;62113;45.624;11.700;2022-09-09T09:22:39;29.70;51.70
63013;DHT22;62113;45.624;11.700;2022-09-09T09:30:26;29.90;51.60
63013;DHT22;62113;45.624;11.700;2022-09-09T09:32:56;29.80;51.40
63013;DHT22;62113;45.624;11.700;2022-09-09T09:35:23;29.80;51.70
63013;DHT22;62113;45.624;11.700;2022-09-09T09:37:49;29.70;51.80
63013;DHT22;62113;45.624;11.700;2022-09-09T09:40:18;29.70;51.70
63013;DHT22;62113;45.624;11.700;2022-09-09T09:42:53;29.70;51.50
63013;DHT22;62113;45.624;11.700;2022-09-09T09:45:33;29.60;51.90
63013;DHT22;62113;45.624;11.700;2022-09-09T09:48:02;29.70;52.20
63013;DHT22;62113;45.624;11.700;2022-09-09T09:50:28;29.80;52.10
63013;DHT22;62113;45.624;11.700;2022-09-09T09:52:56;29.80;51.90
63013;DHT22;62113;45.624;11.700;2022-09-09T09:55:23;29.80;51.40
63013;DHT22;62113;45.624;11.700;2022-09-09T09:57:49;29.80;51.00
63013;DHT22;62113;45.624;11.700;2022-09-09T10:00:17;29.80;51.00
63013;DHT22;62113;45.624;11.700;2022-09-09T10:02:45;29.70;50.10
63013;DHT22;62113;45.624;11.700;2022-09-09T10:05:30;29.60;50.90
63013;DHT22;62113;45.624;11.700;2022-09-09T10:13:11;29.70;51.20
63013;DHT22;62113;45.624;11.700;2022-09-09T10:15:58;29.80;51.10
63013;DHT22;62113;45.624;11.700;2022-09-09T10:18:47;29.90;50.80
63013;DHT22;62113;45.624;11.700;2022-09-09T10:24:29;29.90;50.20
63013;DHT22;62113;45.624;11.700;2022-09-09T10:30:21;29.50;48.50
63013;DHT22;62113;45.624;11.700;2022-09-09T10:35:29;29.40;50.10
63013;DHT22;62113;45.624;11.700;2022-09-09T10:38:41;29.30;50.10
63013;DHT22;62113;45.624;11.700;2022-09-09T10:44:49;29.30;50.60
63013;DHT22;62113;45.624;11.700;2022-09-09T10:47:45;29.20;51.00
63013;DHT22;62113;45.624;11.700;2022-09-09T10:50:48;29.10;51.20
63013;DHT22;62113;45.624;11.700;2022-09-09T10:53:40;28.70;51.40
63013;DHT22;62113;45.624;11.700;2022-09-09T10:56:16;28.70;52.10
63013;DHT22;62113;45.624;11.700;2022-09-09T10:58:48;28.80;52.00
63013;DHT22;62113;45.624;11.700;2022-09-09T11:01:36;28.90;51.90
63013;DHT22;62113;45.624;11.700;2022-09-09T11:04:25;29.00;51.20
63013;DHT22;62113;45.624;11.700;2022-09-09T11:06:55;28.90;50.90
63013;DHT22;62113;45.624;11.700;2022-09-09T11:09:28;28.80;51.70
63013;DHT22;62113;45.624;11.700;2022-09-09T11:11:58;28.80;52.40
63013;DHT22;62113;45.624;11.700;2022-09-09T11:19:44;29.10;49.90
63013;DHT22;62113;45.624;11.700;2022-09-09T11:25:18;28.90;49.70
63013;DHT22;62113;45.624;11.700;2022-09-09T11:38:46;28.70;51.40
63013;DHT22;62113;45.624;11.700;2022-09-09T11:41:14;28.60;51.90
63013;DHT22;62113;45.624;11.700;2022-09-09T11:43:46;28.50;51.80
63013;DHT22;62113;45.624;11.700;2022-09-09T11:46:14;28.50;52.10
63013;DHT22;62113;45.624;11.700;2022-09-09T11:49:00;28.40;52.50
63013;DHT22;62113;45.624;11.700;2022-09-09T11:51:30;28.30;52.50
63013;DHT22;62113;45.624;11.700;2022-09-09T11:54:01;28.20;53.00
63013;DHT22;62113;45.624;11.700;2022-09-09T11:56:31;28.10;53.70
63013;DHT22;62113;45.624;11.700;2022-09-09T11:59:27;28.00;54.60
63013;DHT22;62113;45.624;11.700;2022-09-09T12:01:58;28.00;55.50
63013;DHT22;62113;45.624;11.700;2022-09-09T12:06:55;27.80;55.90
63013;DHT22;62113;45.624;11.700;2022-09-09T12:09:23;27.70;55.40
63013;DHT22;62113;45.624;11.700;2022-09-09T12:11:50;27.60;55.70
63013;DHT22;62113;45.624;11.700;2022-09-09T12:14:55;27.50;56.50
63013;DHT22;62113;45.624;11.700;2022-09-09T12:17:23;27.40;57.80
63013;DHT22;62113;45.624;11.700;2022-09-09T12:20:21;27.30;59.20
63013;DHT22;62113;45.624;11.700;2022-09-09T12:26:16;27.20;58.60
63013;DHT22;62113;45.624;11.700;2022-09-09T12:33:47;27.00;58.60
63013;DHT22;62113;45.624;11.700;2022-09-09T12:36:33;26.80;59.40
63013;DHT22;62113;45.624;11.700;2022-09-09T12:39:10;26.50;60.40
63013;DHT22;62113;45.624;11.700;2022-09-09T12:41:40;26.40;60.50
63013;DHT22;62113;45.624;11.700;2022-09-09T12:44:09;26.50;59.20
63013;DHT22;62113;45.624;11.700;2022-09-09T12:46:43;26.60;58.80
63013;DHT22;62113;45.624;11.700;2022-09-09T12:49:29;26.60;58.90
63013;DHT22;62113;45.624;11.700;2022-09-09T12:54:44;26.40;59.00
63013;DHT22;62113;45.624;11.700;2022-09-09T12:57:13;26.30;60.60
63013;DHT22;62113;45.624;11.700;2022-09-09T12:59:43;26.20;61.00
63013;DHT22;62113;45.624;11.700;2022-09-09T13:02:26;26.20;61.20
63013;DHT22;62113;45.624;11.700;2022-09-09T13:04:53;26.20;61.30
63013;DHT22;62113;45.624;11.700;2022-09-09T13:07:20;26.20;62.00
63013;DHT22;62113;45.624;11.700;2022-09-09T13:09:47;26.20;61.70
63013;DHT22;62113;45.624;11.700;2022-09-09T13:12:17;26.10;60.80
63013;DHT22;62113;45.624;11.700;2022-09-09T13:14:46;26.10;60.30
63013;DHT22;62113;45.624;11.700;2022-09-09T13:17:25;26.10;59.80
63013;DHT22;62113;45.624;11.700;2022-09-09T13:19:52;26.00;58.50
63013;DHT22;62113;45.624;11.700;2022-09-09T13:22:37;25.80;59.00
63013;DHT22;62113;45.624;11.700;2022-09-09T13:27:41;25.70;59.20
63013;DHT22;62113;45.624;11.700;2022-09-09T13:33:20;25.80;59.90
63013;DHT22;62113;45.624;11.700;2022-09-09T13:38:14;25.80;58.90
63013;DHT22;62113;45.624;11.700;2022-09-09T13:40:40;25.70;59.90
63013;DHT22;62113;45.624;11.700;2022-09-09T13:43:21;25.70;60.10
63013;DHT22;62113;45.624;11.700;2022-09-09T13:45:55;25.90;60.90
63013;DHT22;62113;45.624;11.700;2022-09-09T13:48:22;26.00;61.20
63013;DHT22;62113;45.624;11.700;2022-09-09T13:51:03;26.10;61.00
63013;DHT22;62113;45.624;11.700;2022-09-09T13:53:30;26.20;60.70
63013;DHT22;62113;45.624;11.700;2022-09-09T13:55:57;26.40;60.40
63013;DHT22;62113;45.624;11.700;2022-09-09T13:58:24;26.50;59.80
63013;DHT22;62113;45.624;11.700;2022-09-09T14:00:51;26.60;59.60
63013;DHT22;62113;45.624;11.700;2022-09-09T14:03:16;26.50;59.30
63013;DHT22;62113;45.624;11.700;2022-09-09T14:05:44;26.50;59.70
63013;DHT22;62113;45.624;11.700;2022-09-09T14:08:21;26.40;59.60
63013;DHT22;62113;45.624;11.700;2022-09-09T14:10:47;26.40;59.20
63013;DHT22;62113;45.624;11.700;2022-09-09T14:13:13;26.40;58.90
63013;DHT22;62113;45.624;11.700;2022-09-09T14:15:39;26.40;59.50
63013;DHT22;62113;45.624;11.700;2022-09-09T14:18:05;26.50;59.40
63013;DHT22;62113;45.624;11.700;2022-09-09T14:20:31;26.60;59.00
63013;DHT22;62113;45.624;11.700;2022-09-09T14:22:57;26.70;58.00
63013;DHT22;62113;45.624;11.700;2022-09-09T14:25:23;26.70;58.20
63013;DHT22;62113;45.624;11.700;2022-09-09T14:27:49;26.90;58.40
63013;DHT22;62113;45.624;11.700;2022-09-09T14:30:16;26.90;58.20
63013;DHT22;62113;45.624;11.700;2022-09-09T14:32:42;27.10;57.90
63013;DHT22;62113;45.624;11.700;2022-09-09T14:35:08;27.10;57.80
63013;DHT22;62113;45.624;11.700;2022-09-09T14:37:33;27.10;57.20
63013;DHT22;62113;45.624;11.700;2022-09-09T14:39:59;27.20;57.50
63013;DHT22;62113;45.624;11.700;2022-09-09T14:42:25;27.20;56.90
63013;DHT22;62113;45.624;11.700;2022-09-09T14:44:52;27.20;57.20
63013;DHT22;62113;45.624;11.700;2022-09-09T14:47:17;27.20;57.30
63013;DHT22;62113;45.624;11.700;2022-09-09T14:49:43;27.20;57.30
63013;DHT22;62113;45.624;11.700;2022-09-09T14:52:08;27.20;57.40
63013;DHT22;62113;45.624;11.700;2022-09-09T14:54:34;27.20;56.80
63013;DHT22;62113;45.624;11.700;2022-09-09T14:57:00;27.20;56.70
63013;DHT22;62113;45.624;11.700;2022-09-09T14:59:25;27.20;57.10
63013;DHT22;62113;45.624;11.700;2022-09-09T15:01:52;27.20;57.20
63013;DHT22;62113;45.624;11.700;2022-09-09T15:04:18;27.20;57.40
63013;DHT22;62113;45.624;11.700;2022-09-09T15:06:45;27.20;57.40
63013;DHT22;62113;45.624;11.700;2022-09-09T15:09:14;27.20;57.40
63013;DHT22;62113;45.624;11.700;2022-09-09T15:11:39;27.20;57.30
63013;DHT22;62113;45.624;11.700;2022-09-09T15:14:07;27.20;56.90
63013;DHT22;62113;45.624;11.700;2022-09-09T15:16:33;27.20;57.00
63013;DHT22;62113;45.624;11.700;2022-09-09T15:19:00;27.20;57.20
63013;DHT22;62113;45.624;11.700;2022-09-09T15:21:28;27.20;57.30
63013;DHT22;62113;45.624;11.700;2022-09-09T15:23:55;27.20;57.20
63013;DHT22;62113;45.624;11.700;2022-09-09T15:26:21;27.10;57.30
63013;DHT22;62113;45.624;11.700;2022-09-09T15:28:47;27.20;57.00
63013;DHT22;62113;45.624;11.700;2022-09-09T15:31:23;27.10;56.80
63013;DHT22;62113;45.624;11.700;2022-09-09T15:36:19;27.00;56.50
63013;DHT22;62113;45.624;11.700;2022-09-09T15:38:45;27.00;55.70
63013;DHT22;62113;45.624;11.700;2022-09-09T15:41:12;26.90;56.00
63013;DHT22;62113;45.624;11.700;2022-09-09T15:43:39;26.90;56.10
63013;DHT22;62113;45.624;11.700;2022-09-09T15:46:37;26.80;56.50
63013;DHT22;62113;45.624;11.700;2022-09-09T15:49:07;26.70;57.00
63013;DHT22;62113;45.624;11.700;2022-09-09T15:51:34;26.70;57.50
63013;DHT22;62113;45.624;11.700;2022-09-09T15:54:00;26.70;57.60
63013;DHT22;62113;45.624;11.700;2022-09-09T15:56:28;26.70;57.90
63013;DHT22;62113;45.624;11.700;2022-09-09T15:58:56;26.70;57.30
63013;DHT22;62113;45.624;11.700;2022-09-09T16:01:22;26.70;56.80
63013;DHT22;62113;45.624;11.700;2022-09-09T16:03:48;26.70;57.00
63013;DHT22;62113;45.624;11.700;2022-09-09T16:06:21;26.70;57.30
63013;DHT22;62113;45.624;11.700;2022-09-09T16:08:49;26.70;57.50
63013;DHT22;62113;45.624;11.700;2022-09-09T16:11:23;26.70;57.40
63013;DHT22;62113;45.624;11.700;2022-09-09T16:13:51;26.80;57.30
63013;DHT22;62113;45.624;11.700;2022-09-09T16:16:18;26.70;57.40
63013;DHT22;62113;45.624;11.700;2022-09-09T16:18:52;26.80;57.10
63013;DHT22;62113;45.624;11.700;2022-09-09T16:23:52;26.80;56.90
63013;DHT22;62113;45.624;11.700;2022-09-09T16:26:19;26.80;56.30
63013;DHT22;62113;45.624;11.700;2022-09-09T16:28:45;26.80;55.80
63013;DHT22;62113;45.624;11.700;2022-09-09T16:31:15;26.70;55.60
63013;DHT22;62113;45.624;11.700;2022-09-09T16:33:42;26.70;56.10
63013;DHT22;62113;45.624;11.700;2022-09-09T16:36:13;26.70;56.30
63013;DHT22;62113;45.624;11.700;2022-09-09T16:38:40;26.70;55.60
63013;DHT22;62113;45.624;11.700;2022-09-09T16:41:07;26.60;56.00
63013;DHT22;62113;45.624;11.700;2022-09-09T16:43:34;26.60;56.20
63013;DHT22;62113;45.624;11.700;2022-09-09T16:46:01;26.60;56.00
63013;DHT22;62113;45.624;11.700;2022-09-09T16:48:31;26.50;56.60
63013;DHT22;62113;45.624;11.700;2022-09-09T16:51:04;26.40;56.80
63013;DHT22;62113;45.624;11.700;2022-09-09T16:53:31;26.40;57.10
63013;DHT22;62113;45.624;11.700;2022-09-09T16:55:57;26.40;57.20
63013;DHT22;62113;45.624;11.700;2022-09-09T16:58:22;26.30;57.20
63013;DHT22;62113;45.624;11.700;2022-09-09T17:00:48;26.20;57.70
63013;DHT22;62113;45.624;11.700;2022-09-09T17:03:14;26.20;58.20
63013;DHT22;62113;45.624;11.700;2022-09-09T17:05:40;26.20;58.80
63013;DHT22;62113;45.624;11.700;2022-09-09T17:08:06;26.20;58.80
63013;DHT22;62113;45.624;11.700;2022-09-09T17:10:32;26.10;59.00
63013;DHT22;62113;45.624;11.700;2022-09-09T17:12:58;26.10;59.30
63013;DHT22;62113;45.624;11.700;2022-09-09T17:15:23;26.10;59.70
63013;DHT22;62113;45.624;11.700;2022-09-09T17:17:49;26.00;59.80
63013;DHT22;62113;45.624;11.700;2022-09-09T17:20:18;26.00;60.10
63013;DHT22;62113;45.624;11.700;2022-09-09T17:22:44;26.00;60.50
63013;DHT22;62113;45.624;11.700;2022-09-09T17:25:10;25.90;60.70
63013;DHT22;62113;45.624;11.700;2022-09-09T17:27:36;25.90;60.80
63013;DHT22;62113;45.624;11.700;2022-09-09T17:30:03;25.80;60.90
63013;DHT22;62113;45.624;11.700;2022-09-09T17:32:28;25.80;61.10
63013;DHT22;62113;45.624;11.700;2022-09-09T17:34:55;25.70;61.30
63013;DHT22;62113;45.624;11.700;2022-09-09T17:37:21;25.70;61.30
63013;DHT22;62113;45.624;11.700;2022-09-09T17:39:46;25.70;62.40
63013;DHT22;62113;45.624;11.700;2022-09-09T17:42:12;25.60;62.60
63013;DHT22;62113;45.624;11.700;2022-09-09T17:44:38;25.50;62.80